sensor_id;sensor_type;location;lat;lon;timestamp;pressure;altitude;pressure_sealevel;temperature;humidity
36798;BME280;22748;8.426;99.512;2023-07-08T00:01:56;100730.34;;;30.72;63.48
36798;BME280;22748;8.426;99.512;2023-07-08T00:04:27;100727.09;;;30.63;64.12
36798;BME280;22748;8.426;99.512;2023-07-08T00:07:07;100728.97;;;30.63;64.09
36798;BME280;22748;8.426;99.512;2023-07-08T00:09:40;100720.44;;;30.66;63.92
36798;BME280;22748;8.426;99.512;2023-07-08T00:12:20;100717.19;;;30.57;64.22
36798;BME280;22748;8.426;99.512;2023-07-08T00:15:04;100722.53;;;30.64;64.17
36798;BME280;22748;8.426;99.512;2023-07-08T00:17:36;100723.53;;;30.69;64.28
36798;BME280;22748;8.426;99.512;2023-07-08T00:20:13;100719.56;;;30.72;64.31
36798;BME280;22748;8.426;99.512;2023-07-08T00:22:46;100719.34;;;30.73;64.06
36798;BME280;22748;8.426;99.512;2023-07-08T00:25:18;100725.78;;;30.72;64.04
36798;BME280;22748;8.426;99.512;2023-07-08T00:27:50;100724.97;;;30.72;63.91
36798;BME280;22748;8.426;99.512;2023-07-08T00:30:28;100736.44;;;30.61;64.43
36798;BME280;22748;8.426;99.512;2023-07-08T00:32:59;100741.22;;;30.59;64.77
36798;BME280;22748;8.426;99.512;2023-07-08T00:35:32;100733.97;;;30.59;64.61
36798;BME280;22748;8.426;99.512;2023-07-08T00:38:21;100730.84;;;30.62;64.71
36798;BME280;22748;8.426;99.512;2023-07-08T00:41:04;100751.56;;;30.62;65.08
36798;BME280;22748;8.426;99.512;2023-07-08T00:43:38;100750.88;;;30.41;65.60
36798;BME280;22748;8.426;99.512;2023-07-08T00:46:33;100762.06;;;30.45;65.44
36798;BME280;22748;8.426;99.512;2023-07-08T00:49:26;100770.34;;;30.43;65.47
36798;BME280;22748;8.426;99.512;2023-07-08T00:52:29;100774.03;;;30.55;65.64
36798;BME280;22748;8.426;99.512;2023-07-08T00:55:09;100770.28;;;30.57;65.38
36798;BME280;22748;8.426;99.512;2023-07-08T00:57:42;100783.91;;;30.62;65.52
36798;BME280;22748;8.426;99.512;2023-07-08T01:00:16;100789.50;;;30.67;65.36
36798;BME280;22748;8.426;99.512;2023-07-08T01:02:50;100791.31;;;30.73;65.19
36798;BME280;22748;8.426;99.512;2023-07-08T01:05:24;100794.41;;;30.76;65.31
36798;BME280;22748;8.426;99.512;2023-07-08T01:08:01;100785.28;;;30.78;65.16
36798;BME280;22748;8.426;99.512;2023-07-08T01:10:38;100787.56;;;30.74;65.23
36798;BME280;22748;8.426;99.512;2023-07-08T01:13:11;100795.00;;;30.79;65.24
36798;BME280;22748;8.426;99.512;2023-07-08T01:15:49;100797.94;;;30.77;65.37
36798;BME280;22748;8.426;99.512;2023-07-08T01:18:26;100802.09;;;30.73;65.35
36798;BME280;22748;8.426;99.512;2023-07-08T01:21:25;100813.31;;;30.70;65.91
36798;BME280;22748;8.426;99.512;2023-07-08T01:24:16;100819.75;;;30.69;65.78
36798;BME280;22748;8.426;99.512;2023-07-08T01:26:48;100822.41;;;30.75;65.41
36798;BME280;22748;8.426;99.512;2023-07-08T01:29:21;100825.72;;;30.78;65.25
36798;BME280;22748;8.426;99.512;2023-07-08T01:31:53;100828.19;;;30.79;65.65
36798;BME280;22748;8.426;99.512;2023-07-08T01:34:32;100833.75;;;30.84;65.41
36798;BME280;22748;8.426;99.512;2023-07-08T01:37:11;100821.53;;;30.88;65.31
36798;BME280;22748;8.426;99.512;2023-07-08T01:39:45;100828.16;;;30.92;65.23
36798;BME280;22748;8.426;99.512;2023-07-08T01:42:32;100829.84;;;30.87;65.40
36798;BME280;22748;8.426;99.512;2023-07-08T01:45:18;100822.97;;;30.91;65.43
36798;BME280;22748;8.426;99.512;2023-07-08T01:47:57;100821.69;;;30.93;65.40
36798;BME280;22748;8.426;99.512;2023-07-08T01:50:57;100823.13;;;30.96;65.35
36798;BME280;22748;8.426;99.512;2023-07-08T01:53:31;100823.94;;;30.96;65.56
36798;BME280;22748;8.426;99.512;2023-07-08T01:56:04;100823.94;;;31.03;65.25
36798;BME280;22748;8.426;99.512;2023-07-08T01:58:37;100833.81;;;31.09;65.47
36798;BME280;22748;8.426;99.512;2023-07-08T02:01:10;100832.13;;;31.15;65.04
36798;BME280;22748;8.426;99.512;2023-07-08T02:03:40;100839.16;;;31.16;64.95
36798;BME280;22748;8.426;99.512;2023-07-08T02:06:15;100831.66;;;31.18;65.00
36798;BME280;22748;8.426;99.512;2023-07-08T02:08:52;100840.81;;;31.17;64.42
36798;BME280;22748;8.426;99.512;2023-07-08T02:11:34;100837.91;;;31.19;64.16
36798;BME280;22748;8.426;99.512;2023-07-08T02:14:05;100841.22;;;31.21;63.84
36798;BME280;22748;8.426;99.512;2023-07-08T02:16:37;100837.47;;;31.22;63.85
36798;BME280;22748;8.426;99.512;2023-07-08T02:19:09;100837.25;;;31.23;63.77
36798;BME280;22748;8.426;99.512;2023-07-08T02:21:42;100845.56;;;31.22;63.82
36798;BME280;22748;8.426;99.512;2023-07-08T02:24:22;100845.09;;;31.25;63.49
36798;BME280;22748;8.426;99.512;2023-07-08T02:26:54;100842.03;;;31.21;63.50
36798;BME280;22748;8.426;99.512;2023-07-08T02:29:25;100837.84;;;31.25;63.13
36798;BME280;22748;8.426;99.512;2023-07-08T02:31:55;100835.78;;;31.27;63.03
36798;BME280;22748;8.426;99.512;2023-07-08T02:34:26;100833.00;;;31.09;63.92
36798;BME280;22748;8.426;99.512;2023-07-08T02:36:56;100835.22;;;30.87;64.34
36798;BME280;22748;8.426;99.512;2023-07-08T02:39:27;100830.56;;;31.01;64.01
36798;BME280;22748;8.426;99.512;2023-07-08T02:42:00;100831.47;;;31.20;63.83
36798;BME280;22748;8.426;99.512;2023-07-08T02:44:31;100824.72;;;31.29;63.40
36798;BME280;22748;8.426;99.512;2023-07-08T02:47:03;100826.16;;;31.31;63.04
36798;BME280;22748;8.426;99.512;2023-07-08T02:49:35;100828.59;;;31.40;63.02
36798;BME280;22748;8.426;99.512;2023-07-08T02:52:13;100834.41;;;31.43;62.97
36798;BME280;22748;8.426;99.512;2023-07-08T02:54:43;100836.91;;;31.45;62.92
36798;BME280;22748;8.426;99.512;2023-07-08T02:57:27;100835.78;;;31.52;62.91
36798;BME280;22748;8.426;99.512;2023-07-08T03:00:05;100838.25;;;31.54;62.80
36798;BME280;22748;8.426;99.512;2023-07-08T03:02:37;100833.88;;;31.53;63.10
36798;BME280;22748;8.426;99.512;2023-07-08T03:05:10;100842.38;;;31.56;62.73
36798;BME280;22748;8.426;99.512;2023-07-08T03:07:41;100832.41;;;31.57;62.62
36798;BME280;22748;8.426;99.512;2023-07-08T03:10:11;100826.31;;;31.62;62.16
36798;BME280;22748;8.426;99.512;2023-07-08T03:12:43;100832.13;;;31.65;62.18
36798;BME280;22748;8.426;99.512;2023-07-08T03:15:15;100822.97;;;31.66;61.93
36798;BME280;22748;8.426;99.512;2023-07-08T03:17:46;100826.72;;;31.65;62.00
36798;BME280;22748;8.426;99.512;2023-07-08T03:20:36;100830.16;;;31.72;61.93
36798;BME280;22748;8.426;99.512;2023-07-08T03:23:13;100825.38;;;31.74;61.84
36798;BME280;22748;8.426;99.512;2023-07-08T03:25:44;100820.81;;;31.75;61.91
36798;BME280;22748;8.426;99.512;2023-07-08T03:28:15;100825.16;;;31.76;62.08
36798;BME280;22748;8.426;99.512;2023-07-08T03:30:50;100826.16;;;31.82;61.89
36798;BME280;22748;8.426;99.512;2023-07-08T03:33:21;100809.47;;;31.85;61.51
36798;BME280;22748;8.426;99.512;2023-07-08T03:35:51;100806.31;;;31.88;61.71
36798;BME280;22748;8.426;99.512;2023-07-08T03:38:21;100799.28;;;31.87;61.54
36798;BME280;22748;8.426;99.512;2023-07-08T03:40:57;100801.31;;;31.91;61.73
36798;BME280;22748;8.426;99.512;2023-07-08T03:43:34;100798.13;;;31.94;61.41
36798;BME280;22748;8.426;99.512;2023-07-08T03:46:07;100793.88;;;31.87;61.29
36798;BME280;22748;8.426;99.512;2023-07-08T03:48:38;100788.16;;;31.76;61.49
36798;BME280;22748;8.426;99.512;2023-07-08T03:51:15;100793.75;;;31.82;61.26
36798;BME280;22748;8.426;99.512;2023-07-08T03:53:47;100793.19;;;31.91;61.13
36798;BME280;22748;8.426;99.512;2023-07-08T03:56:20;100790.63;;;31.96;61.28
36798;BME280;22748;8.426;99.512;2023-07-08T03:58:53;100784.38;;;32.03;60.48
36798;BME280;22748;8.426;99.512;2023-07-08T04:01:25;100773.47;;;32.09;60.17
36798;BME280;22748;8.426;99.512;2023-07-08T04:03:57;100768.06;;;32.09;60.21
36798;BME280;22748;8.426;99.512;2023-07-08T04:06:28;100764.34;;;32.10;60.36
36798;BME280;22748;8.426;99.512;2023-07-08T04:09:01;100756.34;;;32.15;60.22
36798;BME280;22748;8.426;99.512;2023-07-08T04:11:32;100756.84;;;32.24;59.96
36798;BME280;22748;8.426;99.512;2023-07-08T04:14:09;100753.25;;;32.30;59.54
36798;BME280;22748;8.426;99.512;2023-07-08T04:16:56;100744.44;;;32.35;59.66
36798;BME280;22748;8.426;99.512;2023-07-08T04:19:32;100742.22;;;32.32;60.16
36798;BME280;22748;8.426;99.512;2023-07-08T04:22:14;100732.59;;;32.36;59.92
36798;BME280;22748;8.426;99.512;2023-07-08T04:24:44;100737.75;;;32.37;60.46
36798;BME280;22748;8.426;99.512;2023-07-08T04:27:16;100739.03;;;32.35;58.97
36798;BME280;22748;8.426;99.512;2023-07-08T04:29:50;100738.56;;;32.38;58.83
36798;BME280;22748;8.426;99.512;2023-07-08T04:35:41;100711.00;;;32.48;58.60
36798;BME280;22748;8.426;99.512;2023-07-08T04:38:16;100713.22;;;32.51;58.60
36798;BME280;22748;8.426;99.512;2023-07-08T04:40:50;100702.22;;;32.52;58.03
36798;BME280;22748;8.426;99.512;2023-07-08T04:43:22;100688.81;;;32.57;57.87
36798;BME280;22748;8.426;99.512;2023-07-08T04:46:00;100684.84;;;32.60;58.35
36798;BME280;22748;8.426;99.512;2023-07-08T04:48:30;100675.88;;;32.59;58.58
36798;BME280;22748;8.426;99.512;2023-07-08T04:51:09;100671.66;;;32.64;58.46
36798;BME280;22748;8.426;99.512;2023-07-08T04:53:40;100676.03;;;32.65;58.36
36798;BME280;22748;8.426;99.512;2023-07-08T04:56:09;100669.56;;;32.66;58.46
36798;BME280;22748;8.426;99.512;2023-07-08T04:58:40;100672.25;;;32.66;58.64
36798;BME280;22748;8.426;99.512;2023-07-08T05:01:12;100671.22;;;32.67;58.80
36798;BME280;22748;8.426;99.512;2023-07-08T05:03:42;100663.69;;;32.69;57.91
36798;BME280;22748;8.426;99.512;2023-07-08T05:06:13;100653.22;;;32.72;57.43
36798;BME280;22748;8.426;99.512;2023-07-08T05:08:50;100656.88;;;32.78;58.03
36798;BME280;22748;8.426;99.512;2023-07-08T05:11:28;100647.22;;;32.82;58.03
36798;BME280;22748;8.426;99.512;2023-07-08T05:13:58;100646.28;;;32.88;57.99
36798;BME280;22748;8.426;99.512;2023-07-08T05:16:31;100644.16;;;32.90;57.45
36798;BME280;22748;8.426;99.512;2023-07-08T05:19:02;100649.09;;;32.93;57.30
36798;BME280;22748;8.426;99.512;2023-07-08T05:21:33;100638.28;;;32.93;57.38
36798;BME280;22748;8.426;99.512;2023-07-08T05:24:04;100635.81;;;32.92;57.06
36798;BME280;22748;8.426;99.512;2023-07-08T05:26:38;100624.66;;;32.88;56.32
36798;BME280;22748;8.426;99.512;2023-07-08T05:29:18;100614.16;;;32.92;55.93
36798;BME280;22748;8.426;99.512;2023-07-08T05:31:56;100610.75;;;32.96;55.95
36798;BME280;22748;8.426;99.512;2023-07-08T05:34:26;100601.09;;;33.00;56.20
36798;BME280;22748;8.426;99.512;2023-07-08T05:36:57;100595.22;;;33.04;56.92
36798;BME280;22748;8.426;99.512;2023-07-08T05:39:29;100591.56;;;33.10;56.70
36798;BME280;22748;8.426;99.512;2023-07-08T05:42:01;100590.03;;;33.14;56.31
36798;BME280;22748;8.426;99.512;2023-07-08T05:44:34;100586.28;;;33.15;55.55
36798;BME280;22748;8.426;99.512;2023-07-08T05:47:07;100585.34;;;33.21;55.48
36798;BME280;22748;8.426;99.512;2023-07-08T05:49:37;100581.06;;;33.25;55.83
36798;BME280;22748;8.426;99.512;2023-07-08T05:52:08;100571.91;;;33.26;55.43
36798;BME280;22748;8.426;99.512;2023-07-08T05:54:48;100569.19;;;33.26;55.02
36798;BME280;22748;8.426;99.512;2023-07-08T05:57:29;100566.13;;;33.23;54.79
36798;BME280;22748;8.426;99.512;2023-07-08T06:00:00;100561.88;;;33.27;54.98
36798;BME280;22748;8.426;99.512;2023-07-08T06:02:33;100553.03;;;33.31;54.33
36798;BME280;22748;8.426;99.512;2023-07-08T06:05:06;100559.63;;;33.35;54.57
36798;BME280;22748;8.426;99.512;2023-07-08T06:07:43;100553.75;;;33.38;54.58
36798;BME280;22748;8.426;99.512;2023-07-08T06:10:14;100546.19;;;33.40;54.66
36798;BME280;22748;8.426;99.512;2023-07-08T06:12:44;100551.13;;;33.44;54.44
36798;BME280;22748;8.426;99.512;2023-07-08T06:15:18;100541.59;;;33.41;54.53
36798;BME280;22748;8.426;99.512;2023-07-08T06:17:50;100540.63;;;33.47;54.32
36798;BME280;22748;8.426;99.512;2023-07-08T06:20:22;100526.38;;;33.52;54.49
36798;BME280;22748;8.426;99.512;2023-07-08T06:22:53;100530.63;;;33.48;54.75
36798;BME280;22748;8.426;99.512;2023-07-08T06:25:29;100514.00;;;33.56;54.42
36798;BME280;22748;8.426;99.512;2023-07-08T06:28:02;100513.88;;;33.63;54.14
36798;BME280;22748;8.426;99.512;2023-07-08T06:30:34;100513.59;;;33.64;54.05
36798;BME280;22748;8.426;99.512;2023-07-08T06:33:07;100508.19;;;33.64;53.55
36798;BME280;22748;8.426;99.512;2023-07-08T06:35:38;100506.06;;;33.66;53.79
36798;BME280;22748;8.426;99.512;2023-07-08T06:38:10;100512.63;;;33.70;53.88
36798;BME280;22748;8.426;99.512;2023-07-08T06:40:41;100509.19;;;33.75;54.07
36798;BME280;22748;8.426;99.512;2023-07-08T06:43:11;100507.22;;;33.70;53.83
36798;BME280;22748;8.426;99.512;2023-07-08T06:45:43;100498.63;;;33.73;53.43
36798;BME280;22748;8.426;99.512;2023-07-08T06:48:18;100486.19;;;33.77;53.47
36798;BME280;22748;8.426;99.512;2023-07-08T06:50:49;100477.00;;;33.78;53.12
36798;BME280;22748;8.426;99.512;2023-07-08T06:53:19;100469.47;;;33.80;53.11
36798;BME280;22748;8.426;99.512;2023-07-08T06:55:50;100465.38;;;33.78;53.23
36798;BME280;22748;8.426;99.512;2023-07-08T06:58:20;100464.53;;;33.77;53.46
36798;BME280;22748;8.426;99.512;2023-07-08T07:00:50;100456.25;;;33.84;53.95
36798;BME280;22748;8.426;99.512;2023-07-08T07:03:23;100459.28;;;33.88;54.11
36798;BME280;22748;8.426;99.512;2023-07-08T07:05:53;100458.81;;;33.91;54.06
36798;BME280;22748;8.426;99.512;2023-07-08T07:08:23;100451.25;;;33.93;53.98
36798;BME280;22748;8.426;99.512;2023-07-08T07:10:55;100443.94;;;33.93;54.26
36798;BME280;22748;8.426;99.512;2023-07-08T07:13:25;100433.16;;;33.98;54.16
36798;BME280;22748;8.426;99.512;2023-07-08T07:15:55;100422.66;;;34.02;53.75
36798;BME280;22748;8.426;99.512;2023-07-08T07:18:46;100422.16;;;34.05;54.04
36798;BME280;22748;8.426;99.512;2023-07-08T07:21:17;100430.84;;;34.07;53.52
36798;BME280;22748;8.426;99.512;2023-07-08T07:23:48;100426.25;;;34.08;53.36
36798;BME280;22748;8.426;99.512;2023-07-08T07:26:19;100442.78;;;34.06;53.98
36798;BME280;22748;8.426;99.512;2023-07-08T07:28:51;100434.06;;;34.04;54.17
36798;BME280;22748;8.426;99.512;2023-07-08T07:31:21;100435.94;;;34.04;54.43
36798;BME280;22748;8.426;99.512;2023-07-08T07:33:54;100426.75;;;34.05;54.88
36798;BME280;22748;8.426;99.512;2023-07-08T07:36:27;100426.00;;;34.09;55.01
36798;BME280;22748;8.426;99.512;2023-07-08T07:38:57;100426.59;;;34.11;54.88
36798;BME280;22748;8.426;99.512;2023-07-08T07:41:28;100458.75;;;34.08;54.96
36798;BME280;22748;8.426;99.512;2023-07-08T07:43:58;100449.19;;;34.00;54.74
36798;BME280;22748;8.426;99.512;2023-07-08T07:46:30;100447.69;;;33.92;54.35
36798;BME280;22748;8.426;99.512;2023-07-08T07:49:02;100451.66;;;33.85;54.19
36798;BME280;22748;8.426;99.512;2023-07-08T07:51:32;100462.31;;;33.74;54.38
36798;BME280;22748;8.426;99.512;2023-07-08T07:54:03;100467.31;;;33.66;54.10
36798;BME280;22748;8.426;99.512;2023-07-08T07:56:34;100481.97;;;33.53;54.83
36798;BME280;22748;8.426;99.512;2023-07-08T07:59:07;100475.81;;;33.40;55.17
36798;BME280;22748;8.426;99.512;2023-07-08T08:01:39;100481.47;;;33.39;55.52
36798;BME280;22748;8.426;99.512;2023-07-08T08:04:11;100477.09;;;33.38;55.86
36798;BME280;22748;8.426;99.512;2023-07-08T08:06:42;100484.78;;;33.29;56.12
36798;BME280;22748;8.426;99.512;2023-07-08T08:09:18;100488.38;;;33.18;56.20
36798;BME280;22748;8.426;99.512;2023-07-08T08:11:50;100494.88;;;33.17;56.25
36798;BME280;22748;8.426;99.512;2023-07-08T08:14:23;100495.81;;;33.11;56.30
36798;BME280;22748;8.426;99.512;2023-07-08T08:16:58;100489.13;;;33.02;56.93
36798;BME280;22748;8.426;99.512;2023-07-08T08:19:35;100491.03;;;32.89;57.92
36798;BME280;22748;8.426;99.512;2023-07-08T08:22:06;100482.84;;;32.84;58.33
36798;BME280;22748;8.426;99.512;2023-07-08T08:24:37;100475.91;;;32.76;58.30
36798;BME280;22748;8.426;99.512;2023-07-08T08:27:11;100486.38;;;32.73;58.03
36798;BME280;22748;8.426;99.512;2023-07-08T08:29:42;100485.22;;;32.69;58.60
36798;BME280;22748;8.426;99.512;2023-07-08T08:32:12;100484.72;;;32.72;58.24
36798;BME280;22748;8.426;99.512;2023-07-08T08:34:45;100483.09;;;32.71;58.66
36798;BME280;22748;8.426;99.512;2023-07-08T08:37:15;100482.84;;;32.72;58.11
36798;BME280;22748;8.426;99.512;2023-07-08T08:39:46;100488.75;;;32.57;58.83
36798;BME280;22748;8.426;99.512;2023-07-08T08:42:25;100486.84;;;32.46;59.16
36798;BME280;22748;8.426;99.512;2023-07-08T08:44:57;100497.94;;;32.45;58.78
36798;BME280;22748;8.426;99.512;2023-07-08T08:47:36;100499.66;;;32.51;58.90
36798;BME280;22748;8.426;99.512;2023-07-08T08:50:27;100499.56;;;32.34;58.99
36798;BME280;22748;8.426;99.512;2023-07-08T08:52:59;100499.81;;;32.32;59.63
36798;BME280;22748;8.426;99.512;2023-07-08T08:55:32;100512.03;;;32.35;59.39
36798;BME280;22748;8.426;99.512;2023-07-08T08:58:20;100513.09;;;32.34;59.17
36798;BME280;22748;8.426;99.512;2023-07-08T09:00:56;100519.44;;;32.28;59.23
36798;BME280;22748;8.426;99.512;2023-07-08T09:03:37;100526.47;;;32.29;59.55
36798;BME280;22748;8.426;99.512;2023-07-08T09:06:16;100522.25;;;32.21;59.98
36798;BME280;22748;8.426;99.512;2023-07-08T09:08:46;100528.81;;;32.02;60.31
36798;BME280;22748;8.426;99.512;2023-07-08T09:14:14;100524.28;;;31.95;60.41
36798;BME280;22748;8.426;99.512;2023-07-08T09:16:50;100528.03;;;31.94;60.60
36798;BME280;22748;8.426;99.512;2023-07-08T09:19:24;100526.88;;;31.90;60.73
36798;BME280;22748;8.426;99.512;2023-07-08T09:22:01;100539.75;;;31.76;60.44
36798;BME280;22748;8.426;99.512;2023-07-08T09:24:45;100543.25;;;31.65;60.76
36798;BME280;22748;8.426;99.512;2023-07-08T09:27:19;100556.47;;;31.55;60.54
36798;BME280;22748;8.426;99.512;2023-07-08T09:29:49;100554.09;;;31.28;61.19
36798;BME280;22748;8.426;99.512;2023-07-08T09:32:22;100567.13;;;31.31;61.67
36798;BME280;22748;8.426;99.512;2023-07-08T09:35:05;100566.22;;;31.37;61.69
36798;BME280;22748;8.426;99.512;2023-07-08T09:37:46;100578.66;;;31.39;62.12
36798;BME280;22748;8.426;99.512;2023-07-08T09:40:18;100578.28;;;31.35;61.97
36798;BME280;22748;8.426;99.512;2023-07-08T09:42:51;100576.13;;;31.07;62.46
36798;BME280;22748;8.426;99.512;2023-07-08T09:45:23;100575.78;;;31.03;62.50
36798;BME280;22748;8.426;99.512;2023-07-08T09:47:55;100582.00;;;31.04;62.28
36798;BME280;22748;8.426;99.512;2023-07-08T09:50:28;100576.44;;;31.17;62.06
36798;BME280;22748;8.426;99.512;2023-07-08T09:53:01;100563.97;;;31.16;61.84
36798;BME280;22748;8.426;99.512;2023-07-08T09:55:33;100556.31;;;31.01;61.67
36798;BME280;22748;8.426;99.512;2023-07-08T09:58:04;100555.72;;;30.74;62.52
36798;BME280;22748;8.426;99.512;2023-07-08T10:00:40;100560.69;;;30.77;62.79
36798;BME280;22748;8.426;99.512;2023-07-08T10:03:17;100566.31;;;30.94;62.08
36798;BME280;22748;8.426;99.512;2023-07-08T10:05:51;100561.44;;;31.03;62.66
36798;BME280;22748;8.426;99.512;2023-07-08T10:08:34;100559.44;;;31.16;62.72
36798;BME280;22748;8.426;99.512;2023-07-08T10:11:18;100555.06;;;31.15;62.46
36798;BME280;22748;8.426;99.512;2023-07-08T10:13:56;100549.31;;;30.93;62.72
36798;BME280;22748;8.426;99.512;2023-07-08T10:16:31;100552.22;;;30.73;62.95
36798;BME280;22748;8.426;99.512;2023-07-08T10:19:04;100556.31;;;30.58;63.75
36798;BME280;22748;8.426;99.512;2023-07-08T10:21:57;100551.41;;;30.48;63.83
36798;BME280;22748;8.426;99.512;2023-07-08T10:24:51;100543.13;;;30.49;64.45
36798;BME280;22748;8.426;99.512;2023-07-08T10:27:25;100534.00;;;30.69;63.66
36798;BME280;22748;8.426;99.512;2023-07-08T10:30:12;100539.47;;;30.81;63.17
36798;BME280;22748;8.426;99.512;2023-07-08T10:32:57;100542.91;;;30.94;63.36
36798;BME280;22748;8.426;99.512;2023-07-08T10:35:37;100561.53;;;30.96;63.25
36798;BME280;22748;8.426;99.512;2023-07-08T10:38:24;100569.34;;;30.86;63.66
36798;BME280;22748;8.426;99.512;2023-07-08T10:41:04;100571.16;;;30.85;63.60
36798;BME280;22748;8.426;99.512;2023-07-08T10:44:01;100560.81;;;30.82;63.77
36798;BME280;22748;8.426;99.512;2023-07-08T10:46:38;100552.63;;;30.70;63.80
36798;BME280;22748;8.426;99.512;2023-07-08T10:49:26;100551.22;;;30.68;63.59
36798;BME280;22748;8.426;99.512;2023-07-08T10:52:07;100550.13;;;30.75;63.88
36798;BME280;22748;8.426;99.512;2023-07-08T10:54:58;100549.06;;;30.76;63.99
36798;BME280;22748;8.426;99.512;2023-07-08T10:57:53;100545.25;;;30.84;63.50
36798;BME280;22748;8.426;99.512;2023-07-08T11:00:34;100539.69;;;30.79;63.78
36798;BME280;22748;8.426;99.512;2023-07-08T11:06:19;100540.75;;;30.78;63.44
36798;BME280;22748;8.426;99.512;2023-07-08T11:08:54;100544.13;;;30.73;63.91
36798;BME280;22748;8.426;99.512;2023-07-08T11:11:32;100540.38;;;30.74;63.92
36798;BME280;22748;8.426;99.512;2023-07-08T11:14:10;100541.94;;;30.64;64.33
36798;BME280;22748;8.426;99.512;2023-07-08T11:16:47;100537.59;;;30.63;64.61
36798;BME280;22748;8.426;99.512;2023-07-08T11:19:27;100527.56;;;30.70;64.00
36798;BME280;22748;8.426;99.512;2023-07-08T11:22:02;100519.66;;;30.75;63.90
36798;BME280;22748;8.426;99.512;2023-07-08T11:24:39;100525.47;;;30.72;64.76
36798;BME280;22748;8.426;99.512;2023-07-08T11:27:16;100523.59;;;30.72;64.95
36798;BME280;22748;8.426;99.512;2023-07-08T11:29:57;100530.44;;;30.75;64.35
36798;BME280;22748;8.426;99.512;2023-07-08T11:32:31;100528.47;;;30.82;64.39
36798;BME280;22748;8.426;99.512;2023-07-08T11:35:05;100524.97;;;30.82;64.87
36798;BME280;22748;8.426;99.512;2023-07-08T11:37:38;100521.41;;;30.81;64.30
36798;BME280;22748;8.426;99.512;2023-07-08T11:40:19;100521.63;;;30.86;64.23
36798;BME280;22748;8.426;99.512;2023-07-08T11:42:59;100527.00;;;30.86;64.95
36798;BME280;22748;8.426;99.512;2023-07-08T11:45:35;100534.84;;;30.88;64.82
36798;BME280;22748;8.426;99.512;2023-07-08T11:48:12;100526.66;;;30.76;64.97
36798;BME280;22748;8.426;99.512;2023-07-08T11:50:45;100529.97;;;30.78;64.90
36798;BME280;22748;8.426;99.512;2023-07-08T11:53:34;100525.13;;;30.68;65.02
36798;BME280;22748;8.426;99.512;2023-07-08T11:56:20;100535.91;;;30.68;64.46
36798;BME280;22748;8.426;99.512;2023-07-08T11:58:58;100533.84;;;30.64;64.80
36798;BME280;22748;8.426;99.512;2023-07-08T12:01:38;100544.19;;;30.67;65.11
36798;BME280;22748;8.426;99.512;2023-07-08T12:04:29;100551.69;;;30.65;65.12
36798;BME280;22748;8.426;99.512;2023-07-08T12:07:17;100548.38;;;30.63;65.09
36798;BME280;22748;8.426;99.512;2023-07-08T12:09:56;100556.84;;;30.66;64.77
36798;BME280;22748;8.426;99.512;2023-07-08T12:12:33;100551.81;;;30.70;64.50
36798;BME280;22748;8.426;99.512;2023-07-08T12:15:11;100547.63;;;30.74;64.65
36798;BME280;22748;8.426;99.512;2023-07-08T12:17:46;100546.28;;;30.83;64.65
36798;BME280;22748;8.426;99.512;2023-07-08T12:20:21;100552.25;;;30.92;64.59
36798;BME280;22748;8.426;99.512;2023-07-08T12:22:53;100562.22;;;30.91;64.32
36798;BME280;22748;8.426;99.512;2023-07-08T12:25:25;100557.66;;;30.85;64.52
36798;BME280;22748;8.426;99.512;2023-07-08T12:27:56;100562.66;;;30.88;64.31
36798;BME280;22748;8.426;99.512;2023-07-08T12:30:29;100569.63;;;30.96;64.12
36798;BME280;22748;8.426;99.512;2023-07-08T12:33:02;100576.28;;;30.93;64.21
36798;BME280;22748;8.426;99.512;2023-07-08T12:35:33;100583.19;;;30.89;64.27
36798;BME280;22748;8.426;99.512;2023-07-08T12:38:09;100583.81;;;30.85;64.67
36798;BME280;22748;8.426;99.512;2023-07-08T12:40:42;100586.69;;;30.90;64.51
36798;BME280;22748;8.426;99.512;2023-07-08T12:43:14;100584.97;;;30.95;64.01
36798;BME280;22748;8.426;99.512;2023-07-08T12:45:44;100587.97;;;30.87;64.14
36798;BME280;22748;8.426;99.512;2023-07-08T12:48:17;100590.50;;;30.82;64.33
36798;BME280;22748;8.426;99.512;2023-07-08T12:50:48;100602.91;;;30.83;64.23
36798;BME280;22748;8.426;99.512;2023-07-08T12:53:19;100607.56;;;30.76;63.87
36798;BME280;22748;8.426;99.512;2023-07-08T12:55:51;100606.06;;;30.80;64.27
36798;BME280;22748;8.426;99.512;2023-07-08T12:58:31;100599.47;;;30.76;63.99
36798;BME280;22748;8.426;99.512;2023-07-08T13:01:04;100601.63;;;30.67;64.45
36798;BME280;22748;8.426;99.512;2023-07-08T13:03:44;100604.72;;;30.71;64.32
36798;BME280;22748;8.426;99.512;2023-07-08T13:06:20;100609.78;;;30.61;64.44
36798;BME280;22748;8.426;99.512;2023-07-08T13:08:53;100606.84;;;30.62;64.50
36798;BME280;22748;8.426;99.512;2023-07-08T13:11:24;100608.44;;;30.70;64.33
36798;BME280;22748;8.426;99.512;2023-07-08T13:13:58;100615.63;;;30.76;63.67
36798;BME280;22748;8.426;99.512;2023-07-08T13:16:33;100616.25;;;30.78;64.04
36798;BME280;22748;8.426;99.512;2023-07-08T13:19:10;100620.97;;;30.83;63.73
36798;BME280;22748;8.426;99.512;2023-07-08T13:21:44;100620.97;;;30.83;63.82
36798;BME280;22748;8.426;99.512;2023-07-08T13:24:20;100628.22;;;30.82;63.35
36798;BME280;22748;8.426;99.512;2023-07-08T13:26:52;100619.09;;;30.83;63.45
36798;BME280;22748;8.426;99.512;2023-07-08T13:29:22;100628.03;;;30.84;63.50
36798;BME280;22748;8.426;99.512;2023-07-08T13:32:03;100631.09;;;30.87;63.40
36798;BME280;22748;8.426;99.512;2023-07-08T13:34:36;100629.00;;;30.89;63.71
36798;BME280;22748;8.426;99.512;2023-07-08T13:37:12;100626.09;;;30.91;63.52
36798;BME280;22748;8.426;99.512;2023-07-08T13:39:46;100622.59;;;30.90;63.25
36798;BME280;22748;8.426;99.512;2023-07-08T13:42:16;100635.00;;;30.91;63.28